LPA727 LTAC-UGTB
Flight info
| Callsign | LPA727 |
|---|---|
| Flight time | 1h 53m |
| Altitude | 37000 |
| Route | GOBIT1T GOBIT UL614 JUPNE UT54 SIV DCT GONPU UN61 NOLGA N61 LAGAS LAGAS1B |
| Aircraft | A320/M-SDE3FGHIRWY/LB1 |
Departure
| Time | 2026-04-28 20:27 |
|---|---|
| Airport | Esenboğa International Airport (LTAC) |
Arrival
| Time | 2026-04-28 22:20 |
|---|---|
| Airport | Tbilisi International Airport (UGTB) |
| Time | Latitude | Longitude | Altitude | Speed | Heading |
|---|---|---|---|---|---|
| 2026-04-28 20:00 | 40.11652 | 32.99235 | 3113 ft | 0 kts | 155° |
| 2026-04-28 20:16 | 40.11658 | 32.99232 | 3113 ft | 2 kts | 154° |
| 2026-04-28 20:16 | 40.11673 | 32.99223 | 3113 ft | 2 kts | 158° |
| 2026-04-28 20:17 | 40.11688 | 32.99215 | 3113 ft | 2 kts | 163° |
| 2026-04-28 20:17 | 40.11704 | 32.99210 | 3113 ft | 2 kts | 180° |
| 2026-04-28 20:17 | 40.11720 | 32.99215 | 3113 ft | 2 kts | 236° |
| 2026-04-28 20:17 | 40.11725 | 32.99226 | 3113 ft | 1 kts | 246° |
| 2026-04-28 20:18 | 40.11725 | 32.99227 | 3113 ft | 0 kts | 246° |
| 2026-04-28 20:20 | 40.11723 | 32.99219 | 3113 ft | 4 kts | 245° |
| 2026-04-28 20:21 | 40.11711 | 32.99189 | 3113 ft | 3 kts | 244° |
| 2026-04-28 20:21 | 40.11699 | 32.99158 | 3113 ft | 8 kts | 242° |
| 2026-04-28 20:21 | 40.11664 | 32.99082 | 3113 ft | 9 kts | 236° |
| 2026-04-28 20:21 | 40.11631 | 32.99020 | 3113 ft | 7 kts | 234° |
| 2026-04-28 20:22 | 40.11585 | 32.98948 | 3113 ft | 12 kts | 227° |
| 2026-04-28 20:22 | 40.11527 | 32.98877 | 3113 ft | 12 kts | 221° |
| 2026-04-28 20:22 | 40.11444 | 32.98794 | 3113 ft | 17 kts | 216° |
| 2026-04-28 20:22 | 40.11348 | 32.98701 | 3112 ft | 18 kts | 216° |
| 2026-04-28 20:23 | 40.11280 | 32.98637 | 3110 ft | 8 kts | 216° |
| 2026-04-28 20:23 | 40.11273 | 32.98583 | 3110 ft | 6 kts | 296° |
| 2026-04-28 20:23 | 40.11300 | 32.98532 | 3109 ft | 10 kts | 306° |
| 2026-04-28 20:23 | 40.11342 | 32.98456 | 3109 ft | 10 kts | 306° |
| 2026-04-28 20:24 | 40.11395 | 32.98363 | 3109 ft | 15 kts | 306° |
| 2026-04-28 20:24 | 40.11459 | 32.98248 | 3109 ft | 16 kts | 306° |
| 2026-04-28 20:24 | 40.11515 | 32.98169 | 3109 ft | 9 kts | 332° |
| 2026-04-28 20:24 | 40.11567 | 32.98166 | 3109 ft | 6 kts | 15° |
| 2026-04-28 20:25 | 40.11581 | 32.98178 | 3109 ft | 0 kts | 37° |
| 2026-04-28 20:26 | 40.11717 | 32.98308 | 3111 ft | 65 kts | 36° |
| 2026-04-28 20:27 | 40.12309 | 32.98872 | 3118 ft | 142 kts | 36° |
| 2026-04-28 20:27 | 40.13276 | 32.99782 | 3240 ft | 191 kts | 36° |
| 2026-04-28 20:27 | 40.14337 | 33.00863 | 4170 ft | 192 kts | 39° |
| 2026-04-28 20:27 | 40.15354 | 33.01952 | 4945 ft | 191 kts | 39° |
| 2026-04-28 20:28 | 40.16437 | 33.03107 | 5205 ft | 212 kts | 39° |
| 2026-04-28 20:28 | 40.17653 | 33.04392 | 5460 ft | 237 kts | 39° |
| 2026-04-28 20:28 | 40.18980 | 33.05789 | 5996 ft | 250 kts | 38° |
| 2026-04-28 20:28 | 40.20311 | 33.07294 | 6717 ft | 257 kts | 50° |
| 2026-04-28 20:29 | 40.21011 | 33.09428 | 7396 ft | 262 kts | 86° |
| 2026-04-28 20:29 | 40.20683 | 33.11836 | 7817 ft | 280 kts | 116° |
| 2026-04-28 20:29 | 40.19634 | 33.14023 | 8479 ft | 287 kts | 129° |
| 2026-04-28 20:29 | 40.18330 | 33.16032 | 9250 ft | 292 kts | 134° |
| 2026-04-28 20:30 | 40.16947 | 33.18005 | 10036 ft | 297 kts | 135° |
| 2026-04-28 20:30 | 40.15544 | 33.20027 | 10447 ft | 315 kts | 134° |
| 2026-04-28 20:30 | 40.14032 | 33.22295 | 10714 ft | 336 kts | 132° |
| 2026-04-28 20:30 | 40.12518 | 33.24672 | 11307 ft | 344 kts | 131° |
| 2026-04-28 20:31 | 40.11026 | 33.27095 | 11987 ft | 349 kts | 130° |
| 2026-04-28 20:31 | 40.09493 | 33.29633 | 12696 ft | 353 kts | 129° |
| 2026-04-28 20:31 | 40.07970 | 33.32171 | 12983 ft | 357 kts | 129° |
| 2026-04-28 20:31 | 40.06435 | 33.34734 | 13291 ft | 360 kts | 129° |
| 2026-04-28 20:32 | 40.04906 | 33.37281 | 14026 ft | 362 kts | 129° |
| 2026-04-28 20:32 | 40.03342 | 33.39872 | 14654 ft | 365 kts | 129° |
| 2026-04-28 20:32 | 40.01758 | 33.42489 | 15248 ft | 369 kts | 129° |
| 2026-04-28 20:32 | 40.00214 | 33.45189 | 15862 ft | 373 kts | 126° |
| 2026-04-28 20:33 | 39.98733 | 33.47985 | 16476 ft | 377 kts | 124° |
| 2026-04-28 20:33 | 39.97279 | 33.50844 | 17104 ft | 380 kts | 123° |
| 2026-04-28 20:33 | 39.95826 | 33.53737 | 17712 ft | 384 kts | 123° |
| 2026-04-28 20:33 | 39.94350 | 33.56652 | 18328 ft | 387 kts | 124° |
| 2026-04-28 20:34 | 39.92850 | 33.59581 | 18854 ft | 390 kts | 124° |
| 2026-04-28 20:34 | 39.91331 | 33.62518 | 19388 ft | 392 kts | 124° |
| 2026-04-28 20:34 | 39.89789 | 33.65480 | 19931 ft | 395 kts | 124° |
| 2026-04-28 20:34 | 39.88236 | 33.68449 | 20463 ft | 398 kts | 124° |
| 2026-04-28 20:35 | 39.86670 | 33.71436 | 20990 ft | 401 kts | 124° |
| 2026-04-28 20:35 | 39.85089 | 33.74448 | 21523 ft | 404 kts | 124° |
| 2026-04-28 20:35 | 39.83499 | 33.77476 | 22050 ft | 407 kts | 124° |
| 2026-04-28 20:35 | 39.81892 | 33.80534 | 22568 ft | 411 kts | 124° |
| 2026-04-28 20:36 | 39.80273 | 33.83618 | 23079 ft | 414 kts | 124° |
| 2026-04-28 20:36 | 39.78646 | 33.86728 | 23572 ft | 417 kts | 123° |
| 2026-04-28 20:36 | 39.77266 | 33.90043 | 23970 ft | 420 kts | 113° |
| 2026-04-28 20:36 | 39.76226 | 33.93574 | 24368 ft | 423 kts | 110° |
| 2026-04-28 20:37 | 39.75214 | 33.97167 | 24772 ft | 425 kts | 110° |
| 2026-04-28 20:37 | 39.74194 | 34.00787 | 25171 ft | 428 kts | 110° |
| 2026-04-28 20:37 | 39.73166 | 34.04423 | 25555 ft | 430 kts | 110° |
| 2026-04-28 20:37 | 39.72128 | 34.08084 | 25939 ft | 432 kts | 110° |
| 2026-04-28 20:38 | 39.71084 | 34.11761 | 26306 ft | 435 kts | 110° |
| 2026-04-28 20:38 | 39.70032 | 34.15455 | 26670 ft | 437 kts | 110° |
| 2026-04-28 20:38 | 39.68976 | 34.19158 | 27022 ft | 440 kts | 110° |
| 2026-04-28 20:38 | 39.67908 | 34.22890 | 27381 ft | 442 kts | 111° |
| 2026-04-28 20:39 | 39.66832 | 34.26639 | 27723 ft | 444 kts | 111° |
| 2026-04-28 20:39 | 39.65753 | 34.30400 | 28065 ft | 447 kts | 111° |
| 2026-04-28 20:39 | 39.64666 | 34.34199 | 28399 ft | 449 kts | 111° |
| 2026-04-28 20:39 | 39.63755 | 34.38068 | 28722 ft | 452 kts | 103° |
| 2026-04-28 20:40 | 39.63306 | 34.42116 | 29027 ft | 454 kts | 93° |
| 2026-04-28 20:40 | 39.63358 | 34.46226 | 29319 ft | 457 kts | 84° |
| 2026-04-28 20:40 | 39.63742 | 34.50326 | 29624 ft | 459 kts | 83° |
| 2026-04-28 20:40 | 39.64129 | 34.54453 | 29922 ft | 461 kts | 83° |
| 2026-04-28 20:41 | 39.64506 | 34.58594 | 30182 ft | 464 kts | 83° |
| 2026-04-28 20:41 | 39.64880 | 34.62761 | 30423 ft | 466 kts | 83° |
| 2026-04-28 20:41 | 39.65257 | 34.66945 | 30658 ft | 468 kts | 83° |
| 2026-04-28 20:41 | 39.65636 | 34.71151 | 30882 ft | 470 kts | 83° |
| 2026-04-28 20:42 | 39.66006 | 34.75315 | 31103 ft | 472 kts | 83° |
| 2026-04-28 20:42 | 39.66381 | 34.79547 | 31324 ft | 473 kts | 84° |
| 2026-04-28 20:42 | 39.66755 | 34.83779 | 31631 ft | 473 kts | 84° |
| 2026-04-28 20:42 | 39.67130 | 34.88017 | 31934 ft | 472 kts | 83° |
| 2026-04-28 20:43 | 39.67506 | 34.92260 | 32249 ft | 472 kts | 84° |
| 2026-04-28 20:43 | 39.67881 | 34.96486 | 32547 ft | 471 kts | 84° |
| 2026-04-28 20:43 | 39.68252 | 35.00707 | 32841 ft | 471 kts | 84° |
| 2026-04-28 20:43 | 39.68621 | 35.04933 | 33148 ft | 471 kts | 84° |
| 2026-04-28 20:44 | 39.68986 | 35.09156 | 33447 ft | 470 kts | 84° |
| 2026-04-28 20:44 | 39.69348 | 35.13370 | 33739 ft | 470 kts | 84° |
| 2026-04-28 20:44 | 39.69706 | 35.17522 | 34022 ft | 470 kts | 84° |
| 2026-04-28 20:44 | 39.70069 | 35.21744 | 34276 ft | 470 kts | 84° |
| 2026-04-28 20:45 | 39.70430 | 35.25957 | 34512 ft | 470 kts | 84° |
| 2026-04-28 20:45 | 39.70789 | 35.30166 | 34746 ft | 470 kts | 84° |
| 2026-04-28 20:45 | 39.71026 | 35.32962 | 34889 ft | 470 kts | 84° |
| 2026-04-28 20:45 | 39.71381 | 35.37187 | 35109 ft | 470 kts | 84° |
| 2026-04-28 20:46 | 39.71734 | 35.41415 | 35327 ft | 470 kts | 84° |
| 2026-04-28 20:46 | 39.72087 | 35.45641 | 35478 ft | 472 kts | 84° |
| 2026-04-28 20:46 | 39.72439 | 35.49882 | 35699 ft | 471 kts | 84° |
| 2026-04-28 20:46 | 39.72789 | 35.54116 | 35927 ft | 471 kts | 84° |
| 2026-04-28 20:47 | 39.73142 | 35.58336 | 36140 ft | 470 kts | 84° |
| 2026-04-28 20:47 | 39.73495 | 35.62564 | 36334 ft | 470 kts | 84° |
| 2026-04-28 20:47 | 39.73841 | 35.66790 | 36515 ft | 471 kts | 84° |
| 2026-04-28 20:47 | 39.74181 | 35.71027 | 36696 ft | 471 kts | 84° |
| 2026-04-28 20:48 | 39.74517 | 35.75264 | 36878 ft | 471 kts | 84° |
| 2026-04-28 20:48 | 39.74852 | 35.79487 | 37026 ft | 471 kts | 84° |
| 2026-04-28 20:48 | 39.75186 | 35.83667 | 37064 ft | 472 kts | 84° |
| 2026-04-28 20:49 | 39.75867 | 35.92230 | 37060 ft | 480 kts | 84° |
| 2026-04-28 20:49 | 39.76555 | 36.00913 | 37067 ft | 486 kts | 84° |
| 2026-04-28 20:50 | 39.77240 | 36.09682 | 37066 ft | 490 kts | 84° |
| 2026-04-28 20:50 | 39.77920 | 36.18518 | 37072 ft | 493 kts | 85° |
| 2026-04-28 20:51 | 39.78523 | 36.27406 | 37071 ft | 495 kts | 88° |
| 2026-04-28 20:51 | 39.78684 | 36.36375 | 37069 ft | 496 kts | 91° |
| 2026-04-28 20:52 | 39.78622 | 36.45349 | 37068 ft | 497 kts | 91° |
| 2026-04-28 20:52 | 39.78628 | 36.54348 | 37076 ft | 498 kts | 90° |
| 2026-04-28 20:53 | 39.78789 | 36.67870 | 37092 ft | 499 kts | 90° |
| 2026-04-28 20:53 | 39.78875 | 36.76878 | 37107 ft | 499 kts | 90° |
| 2026-04-28 20:54 | 39.78991 | 36.85914 | 37113 ft | 500 kts | 85° |
| 2026-04-28 20:54 | 39.80665 | 36.94655 | 37116 ft | 500 kts | 66° |
| 2026-04-28 20:55 | 39.83399 | 37.02972 | 37112 ft | 500 kts | 66° |
| 2026-04-28 20:55 | 39.86121 | 37.11309 | 37097 ft | 501 kts | 67° |
| 2026-04-28 20:56 | 39.88808 | 37.19626 | 37085 ft | 501 kts | 67° |
| 2026-04-28 20:56 | 39.91508 | 37.27997 | 37069 ft | 501 kts | 67° |
| 2026-04-28 20:57 | 39.94208 | 37.36369 | 37060 ft | 501 kts | 67° |
| 2026-04-28 20:57 | 39.96904 | 37.44754 | 37064 ft | 502 kts | 67° |
| 2026-04-28 20:58 | 39.99590 | 37.53147 | 37053 ft | 502 kts | 67° |
| 2026-04-28 20:58 | 40.02276 | 37.61561 | 37058 ft | 501 kts | 68° |
| 2026-04-28 20:59 | 40.04946 | 37.69974 | 37055 ft | 501 kts | 67° |
| 2026-04-28 20:59 | 40.07559 | 37.78189 | 37056 ft | 502 kts | 67° |
| 2026-04-28 21:00 | 40.10087 | 37.86172 | 37049 ft | 501 kts | 68° |
| 2026-04-28 21:00 | 40.12750 | 37.94621 | 37047 ft | 502 kts | 68° |
| 2026-04-28 21:01 | 40.15403 | 38.03062 | 37053 ft | 502 kts | 68° |
| 2026-04-28 21:01 | 40.18051 | 38.11512 | 37059 ft | 502 kts | 68° |
| 2026-04-28 21:02 | 40.20693 | 38.19970 | 37056 ft | 502 kts | 68° |
| 2026-04-28 21:02 | 40.23313 | 38.28379 | 37057 ft | 502 kts | 68° |
| 2026-04-28 21:03 | 40.25938 | 38.36844 | 37056 ft | 502 kts | 68° |
| 2026-04-28 21:03 | 40.28562 | 38.45330 | 37059 ft | 502 kts | 68° |
| 2026-04-28 21:04 | 40.31175 | 38.53810 | 37054 ft | 502 kts | 68° |
| 2026-04-28 21:04 | 40.33796 | 38.62299 | 37053 ft | 502 kts | 68° |
| 2026-04-28 21:05 | 40.36415 | 38.70811 | 37054 ft | 503 kts | 68° |
| 2026-04-28 21:05 | 40.39015 | 38.79317 | 37055 ft | 502 kts | 68° |
| 2026-04-28 21:06 | 40.41605 | 38.87824 | 37057 ft | 502 kts | 69° |
| 2026-04-28 21:06 | 40.44173 | 38.96281 | 37063 ft | 503 kts | 69° |
| 2026-04-28 21:07 | 40.46780 | 39.04874 | 37060 ft | 502 kts | 69° |
| 2026-04-28 21:07 | 40.49355 | 39.13409 | 37060 ft | 502 kts | 69° |
| 2026-04-28 21:08 | 40.51919 | 39.21946 | 37066 ft | 502 kts | 69° |
| 2026-04-28 21:08 | 40.54459 | 39.30445 | 37075 ft | 503 kts | 69° |
| 2026-04-28 21:09 | 40.57020 | 39.39014 | 37077 ft | 503 kts | 69° |
| 2026-04-28 21:09 | 40.59576 | 39.47588 | 37083 ft | 503 kts | 69° |
| 2026-04-28 21:10 | 40.62124 | 39.56165 | 37086 ft | 503 kts | 69° |
| 2026-04-28 21:10 | 40.64665 | 39.64750 | 37091 ft | 503 kts | 69° |
| 2026-04-28 21:11 | 40.67208 | 39.73336 | 37104 ft | 503 kts | 69° |
| 2026-04-28 21:11 | 40.69738 | 39.81929 | 37112 ft | 503 kts | 70° |
| 2026-04-28 21:12 | 40.72254 | 39.90539 | 37117 ft | 503 kts | 70° |
| 2026-04-28 21:12 | 40.74772 | 39.99159 | 37120 ft | 504 kts | 70° |
| 2026-04-28 21:13 | 40.77273 | 40.07723 | 37126 ft | 504 kts | 70° |
| 2026-04-28 21:13 | 40.79779 | 40.16346 | 37122 ft | 504 kts | 70° |
| 2026-04-28 21:14 | 40.82275 | 40.24991 | 37127 ft | 504 kts | 70° |
| 2026-04-28 21:14 | 40.84770 | 40.33653 | 37133 ft | 504 kts | 70° |
| 2026-04-28 21:15 | 40.87257 | 40.42305 | 37135 ft | 504 kts | 70° |
| 2026-04-28 21:15 | 40.89749 | 40.50985 | 37147 ft | 504 kts | 70° |
| 2026-04-28 21:16 | 40.92217 | 40.59648 | 37141 ft | 504 kts | 70° |
| 2026-04-28 21:16 | 40.94678 | 40.68279 | 37146 ft | 505 kts | 70° |
| 2026-04-28 21:17 | 40.97151 | 40.76982 | 37145 ft | 505 kts | 70° |
| 2026-04-28 21:17 | 40.99612 | 40.85704 | 37150 ft | 505 kts | 70° |
| 2026-04-28 21:18 | 41.02056 | 40.94435 | 37147 ft | 505 kts | 71° |
| 2026-04-28 21:18 | 41.04482 | 41.03098 | 37129 ft | 505 kts | 71° |
| 2026-04-28 21:19 | 41.06923 | 41.11816 | 37108 ft | 504 kts | 71° |
| 2026-04-28 21:19 | 41.09361 | 41.20531 | 37110 ft | 504 kts | 71° |
| 2026-04-28 21:20 | 41.11788 | 41.29245 | 37110 ft | 504 kts | 71° |
| 2026-04-28 21:20 | 41.14205 | 41.37966 | 37119 ft | 503 kts | 71° |
| 2026-04-28 21:21 | 41.16589 | 41.46639 | 37116 ft | 488 kts | 71° |
| 2026-04-28 21:21 | 41.18865 | 41.54922 | 37123 ft | 468 kts | 71° |
| 2026-04-28 21:22 | 41.19961 | 41.58914 | 37120 ft | 453 kts | 71° |
| 2026-04-28 21:22 | 41.21030 | 41.62803 | 37126 ft | 445 kts | 71° |
| 2026-04-28 21:22 | 41.22776 | 41.69178 | 37128 ft | 441 kts | 71° |
| 2026-04-28 21:23 | 41.23705 | 41.74428 | 37124 ft | 434 kts | 92° |
| 2026-04-28 21:23 | 41.23375 | 41.78351 | 37127 ft | 424 kts | 111° |
| 2026-04-28 21:23 | 41.22182 | 41.81867 | 37124 ft | 414 kts | 130° |
| 2026-04-28 21:23 | 41.20276 | 41.84622 | 37125 ft | 402 kts | 149° |
| 2026-04-28 21:24 | 41.17893 | 41.86353 | 37115 ft | 391 kts | 167° |
| 2026-04-28 21:24 | 41.15260 | 41.86933 | 37111 ft | 380 kts | 186° |
| 2026-04-28 21:24 | 41.12706 | 41.86304 | 37095 ft | 371 kts | 205° |
| 2026-04-28 21:24 | 41.10527 | 41.84567 | 37085 ft | 365 kts | 225° |
| 2026-04-28 21:25 | 41.08970 | 41.81940 | 37081 ft | 364 kts | 244° |
| 2026-04-28 21:25 | 41.08225 | 41.78748 | 37075 ft | 366 kts | 263° |
| 2026-04-28 21:25 | 41.08387 | 41.75361 | 37099 ft | 375 kts | 282° |
| 2026-04-28 21:25 | 41.09457 | 41.72155 | 37116 ft | 388 kts | 301° |
| 2026-04-28 21:26 | 41.11328 | 41.69526 | 37118 ft | 401 kts | 320° |
| 2026-04-28 21:26 | 41.13819 | 41.67787 | 37120 ft | 412 kts | 339° |
| 2026-04-28 21:26 | 41.16686 | 41.67160 | 37121 ft | 426 kts | 358° |
| 2026-04-28 21:26 | 41.19644 | 41.67743 | 37131 ft | 436 kts | 17° |
| 2026-04-28 21:27 | 41.22376 | 41.69494 | 37124 ft | 438 kts | 34° |
| 2026-04-28 21:27 | 41.24645 | 41.72188 | 37133 ft | 439 kts | 51° |
| 2026-04-28 21:27 | 41.26260 | 41.75614 | 37133 ft | 438 kts | 69° |
| 2026-04-28 21:27 | 41.27106 | 41.79467 | 37138 ft | 435 kts | 82° |
| 2026-04-28 21:28 | 41.28193 | 41.87416 | 37135 ft | 437 kts | 82° |
| 2026-04-28 21:28 | 41.29265 | 41.95313 | 37124 ft | 437 kts | 82° |
| 2026-04-28 21:29 | 41.30352 | 42.03263 | 37120 ft | 437 kts | 82° |
| 2026-04-28 21:29 | 41.31433 | 42.11203 | 37103 ft | 436 kts | 82° |
| 2026-04-28 21:30 | 41.32505 | 42.19175 | 37099 ft | 440 kts | 82° |
| 2026-04-28 21:30 | 41.33587 | 42.27271 | 37097 ft | 451 kts | 82° |
| 2026-04-28 21:31 | 41.34697 | 42.35589 | 37095 ft | 461 kts | 82° |
| 2026-04-28 21:31 | 41.35823 | 42.44074 | 37095 ft | 468 kts | 82° |
| 2026-04-28 21:32 | 41.36951 | 42.52632 | 37085 ft | 469 kts | 82° |
| 2026-04-28 21:32 | 41.38079 | 42.61207 | 37086 ft | 470 kts | 82° |
| 2026-04-28 21:33 | 41.39199 | 42.69777 | 37079 ft | 470 kts | 82° |
| 2026-04-28 21:33 | 41.40311 | 42.78379 | 36366 ft | 475 kts | 83° |
| 2026-04-28 21:34 | 41.40680 | 42.81264 | 35356 ft | 480 kts | 82° |
| 2026-04-28 21:34 | 41.41248 | 42.85687 | 34324 ft | 484 kts | 82° |
| 2026-04-28 21:34 | 41.41823 | 42.90132 | 33719 ft | 479 kts | 82° |
| 2026-04-28 21:34 | 41.42376 | 42.94436 | 33155 ft | 474 kts | 82° |
| 2026-04-28 21:35 | 41.42925 | 42.98736 | 32628 ft | 468 kts | 82° |
| 2026-04-28 21:35 | 41.43452 | 43.02986 | 32084 ft | 462 kts | 83° |
| 2026-04-28 21:35 | 41.43955 | 43.07192 | 31553 ft | 457 kts | 83° |
| 2026-04-28 21:35 | 41.44444 | 43.11360 | 31023 ft | 452 kts | 83° |
| 2026-04-28 21:36 | 41.44926 | 43.15479 | 30512 ft | 448 kts | 83° |
| 2026-04-28 21:36 | 41.45405 | 43.19563 | 29971 ft | 444 kts | 83° |
| 2026-04-28 21:36 | 41.45876 | 43.23603 | 29468 ft | 438 kts | 83° |
| 2026-04-28 21:36 | 41.46343 | 43.27597 | 28996 ft | 433 kts | 83° |
| 2026-04-28 21:37 | 41.46805 | 43.31525 | 28516 ft | 427 kts | 83° |
| 2026-04-28 21:37 | 41.47265 | 43.35411 | 28056 ft | 422 kts | 83° |
| 2026-04-28 21:37 | 41.47720 | 43.39259 | 27606 ft | 417 kts | 83° |
| 2026-04-28 21:37 | 41.48164 | 43.43044 | 27148 ft | 413 kts | 83° |
| 2026-04-28 21:38 | 41.48604 | 43.46813 | 26702 ft | 409 kts | 83° |
| 2026-04-28 21:38 | 41.49036 | 43.50541 | 26254 ft | 405 kts | 83° |
| 2026-04-28 21:38 | 41.49463 | 43.54257 | 25786 ft | 403 kts | 83° |
| 2026-04-28 21:38 | 41.49886 | 43.57936 | 25342 ft | 400 kts | 82° |
| 2026-04-28 21:39 | 41.50307 | 43.61598 | 24863 ft | 399 kts | 82° |
| 2026-04-28 21:39 | 41.50718 | 43.65197 | 24391 ft | 397 kts | 82° |
| 2026-04-28 21:39 | 41.51131 | 43.68839 | 23906 ft | 396 kts | 82° |
| 2026-04-28 21:39 | 41.51544 | 43.72461 | 23371 ft | 395 kts | 82° |
| 2026-04-28 21:40 | 41.51956 | 43.76076 | 22874 ft | 392 kts | 82° |
| 2026-04-28 21:40 | 41.52366 | 43.79661 | 22388 ft | 389 kts | 82° |
| 2026-04-28 21:40 | 41.52770 | 43.83209 | 21910 ft | 386 kts | 82° |
| 2026-04-28 21:40 | 41.53167 | 43.86745 | 21439 ft | 384 kts | 82° |
| 2026-04-28 21:41 | 41.53558 | 43.90259 | 20963 ft | 381 kts | 82° |
| 2026-04-28 21:41 | 41.53942 | 43.93734 | 20533 ft | 377 kts | 82° |
| 2026-04-28 21:41 | 41.54325 | 43.97198 | 20098 ft | 374 kts | 82° |
| 2026-04-28 21:41 | 41.54706 | 44.00627 | 19672 ft | 371 kts | 82° |
| 2026-04-28 21:42 | 41.55085 | 44.04028 | 19238 ft | 369 kts | 82° |
| 2026-04-28 21:42 | 41.55464 | 44.07404 | 18824 ft | 365 kts | 82° |
| 2026-04-28 21:42 | 41.55837 | 44.10740 | 18446 ft | 362 kts | 82° |
| 2026-04-28 21:42 | 41.56204 | 44.14055 | 17967 ft | 360 kts | 82° |
| 2026-04-28 21:43 | 41.56567 | 44.17350 | 17515 ft | 357 kts | 82° |
| 2026-04-28 21:43 | 41.57166 | 44.20543 | 17092 ft | 355 kts | 68° |
| 2026-04-28 21:43 | 41.58369 | 44.23409 | 16669 ft | 352 kts | 52° |
| 2026-04-28 21:43 | 41.60081 | 44.25718 | 16256 ft | 350 kts | 37° |
| 2026-04-28 21:44 | 41.62086 | 44.27550 | 15834 ft | 348 kts | 34° |
| 2026-04-28 21:44 | 41.64064 | 44.29332 | 15449 ft | 345 kts | 34° |
| 2026-04-28 21:44 | 41.66056 | 44.31136 | 15031 ft | 343 kts | 34° |
| 2026-04-28 21:44 | 41.68021 | 44.32918 | 14672 ft | 340 kts | 34° |
| 2026-04-28 21:45 | 41.69971 | 44.34684 | 14184 ft | 335 kts | 34° |
| 2026-04-28 21:45 | 41.71881 | 44.36413 | 13615 ft | 326 kts | 34° |
| 2026-04-28 21:45 | 41.73720 | 44.38083 | 13210 ft | 312 kts | 34° |
| 2026-04-28 21:45 | 41.75481 | 44.39684 | 12834 ft | 299 kts | 34° |
| 2026-04-28 21:46 | 41.77185 | 44.41233 | 12345 ft | 297 kts | 35° |
| 2026-04-28 21:46 | 41.78789 | 44.42688 | 11963 ft | 298 kts | 35° |
| 2026-04-28 21:46 | 41.80508 | 44.44249 | 11583 ft | 298 kts | 35° |
| 2026-04-28 21:46 | 41.82221 | 44.45808 | 11199 ft | 297 kts | 36° |
| 2026-04-28 21:47 | 41.83868 | 44.47462 | 10810 ft | 295 kts | 44° |
| 2026-04-28 21:47 | 41.85302 | 44.49425 | 10466 ft | 292 kts | 47° |
| 2026-04-28 21:47 | 41.86711 | 44.51398 | 10087 ft | 292 kts | 48° |
| 2026-04-28 21:47 | 41.88111 | 44.53357 | 9649 ft | 292 kts | 48° |
| 2026-04-28 21:48 | 41.89501 | 44.55301 | 9443 ft | 284 kts | 48° |
| 2026-04-28 21:48 | 41.90839 | 44.57177 | 9306 ft | 273 kts | 48° |
| 2026-04-28 21:48 | 41.91906 | 44.59192 | 9125 ft | 261 kts | 71° |
| 2026-04-28 21:48 | 41.92136 | 44.61536 | 8968 ft | 254 kts | 98° |
| 2026-04-28 21:49 | 41.91522 | 44.63760 | 8421 ft | 260 kts | 128° |
| 2026-04-28 21:49 | 41.90258 | 44.65473 | 8013 ft | 260 kts | 136° |
| 2026-04-28 21:49 | 41.88954 | 44.67123 | 7730 ft | 255 kts | 136° |
| 2026-04-28 21:49 | 41.87684 | 44.68735 | 7448 ft | 250 kts | 136° |
| 2026-04-28 21:50 | 41.86424 | 44.70337 | 7093 ft | 248 kts | 136° |
| 2026-04-28 21:50 | 41.85186 | 44.71913 | 6754 ft | 240 kts | 136° |
| 2026-04-28 21:50 | 41.84022 | 44.73395 | 6441 ft | 229 kts | 136° |
| 2026-04-28 21:50 | 41.82868 | 44.74862 | 6123 ft | 222 kts | 136° |
| 2026-04-28 21:51 | 41.81711 | 44.76337 | 6750 ft | 246 kts | 135° |
| 2026-04-28 21:51 | 41.80402 | 44.78023 | 7122 ft | 276 kts | 135° |
| 2026-04-28 21:51 | 41.79048 | 44.79761 | 7050 ft | 263 kts | 136° |
| 2026-04-28 21:51 | 41.77754 | 44.81382 | 7014 ft | 246 kts | 140° |
| 2026-04-28 21:52 | 41.76313 | 44.82455 | 7009 ft | 231 kts | 162° |
| 2026-04-28 21:52 | 41.74792 | 44.83174 | 7013 ft | 234 kts | 147° |
| 2026-04-28 21:52 | 41.73536 | 44.84559 | 7010 ft | 236 kts | 135° |
| 2026-04-28 21:52 | 41.72387 | 44.86136 | 7008 ft | 237 kts | 132° |
| 2026-04-28 21:53 | 41.71260 | 44.87747 | 7013 ft | 237 kts | 132° |
| 2026-04-28 21:53 | 41.70137 | 44.89362 | 7010 ft | 237 kts | 132° |
| 2026-04-28 21:53 | 41.69019 | 44.90980 | 7009 ft | 237 kts | 131° |
| 2026-04-28 21:53 | 41.67954 | 44.92653 | 7009 ft | 236 kts | 128° |
| 2026-04-28 21:54 | 41.66935 | 44.94385 | 7007 ft | 237 kts | 127° |
| 2026-04-28 21:54 | 41.65924 | 44.96118 | 7006 ft | 237 kts | 127° |
| 2026-04-28 21:54 | 41.64901 | 44.97842 | 7011 ft | 237 kts | 131° |
| 2026-04-28 21:54 | 41.63541 | 44.99045 | 7005 ft | 238 kts | 162° |
| 2026-04-28 21:55 | 41.61893 | 44.99113 | 7010 ft | 242 kts | 194° |
| 2026-04-28 21:55 | 41.60434 | 44.98005 | 7011 ft | 246 kts | 225° |
| 2026-04-28 21:55 | 41.59598 | 44.96030 | 7012 ft | 248 kts | 257° |
| 2026-04-28 21:55 | 41.59634 | 44.93746 | 7008 ft | 249 kts | 289° |
| 2026-04-28 21:56 | 41.60442 | 44.91711 | 7013 ft | 249 kts | 308° |
| 2026-04-28 21:56 | 41.61756 | 44.90265 | 7009 ft | 246 kts | 339° |
| 2026-04-28 21:56 | 41.63419 | 44.89932 | 7012 ft | 242 kts | 11° |
| 2026-04-28 21:56 | 41.64939 | 44.90790 | 7008 ft | 238 kts | 42° |
| 2026-04-28 21:57 | 41.65980 | 44.92490 | 7009 ft | 238 kts | 56° |
| 2026-04-28 21:57 | 41.67180 | 44.93998 | 7016 ft | 241 kts | 28° |
| 2026-04-28 21:57 | 41.68803 | 44.94474 | 7009 ft | 244 kts | 356° |
| 2026-04-28 21:57 | 41.70437 | 44.93831 | 7010 ft | 247 kts | 336° |
| 2026-04-28 21:58 | 41.71964 | 44.92759 | 7014 ft | 248 kts | 332° |
| 2026-04-28 21:58 | 41.73482 | 44.91664 | 7010 ft | 248 kts | 333° |
| 2026-04-28 21:58 | 41.75007 | 44.90578 | 7013 ft | 248 kts | 333° |
| 2026-04-28 21:58 | 41.76536 | 44.89491 | 7056 ft | 251 kts | 333° |
| 2026-04-28 21:59 | 41.78080 | 44.88402 | 7845 ft | 251 kts | 334° |
| 2026-04-28 21:59 | 41.79644 | 44.87337 | 8655 ft | 256 kts | 334° |
| 2026-04-28 21:59 | 41.81246 | 44.86266 | 8928 ft | 257 kts | 335° |
| 2026-04-28 22:00 | 41.84484 | 44.84239 | 9008 ft | 257 kts | 336° |
| 2026-04-28 22:00 | 41.86108 | 44.83240 | 9008 ft | 257 kts | 336° |
| 2026-04-28 22:00 | 41.87728 | 44.82245 | 9006 ft | 257 kts | 336° |
| 2026-04-28 22:00 | 41.89358 | 44.81243 | 9003 ft | 257 kts | 336° |
| 2026-04-28 22:01 | 41.90981 | 44.80245 | 9006 ft | 257 kts | 336° |
| 2026-04-28 22:01 | 41.92584 | 44.79186 | 9006 ft | 257 kts | 330° |
| 2026-04-28 22:01 | 41.94141 | 44.78006 | 9001 ft | 257 kts | 330° |
| 2026-04-28 22:01 | 41.95544 | 44.76581 | 8998 ft | 257 kts | 308° |
| 2026-04-28 22:02 | 41.96304 | 44.74408 | 9001 ft | 256 kts | 277° |
| 2026-04-28 22:02 | 41.96223 | 44.72071 | 9003 ft | 255 kts | 256° |
| 2026-04-28 22:02 | 41.95768 | 44.69771 | 8996 ft | 255 kts | 252° |
| 2026-04-28 22:02 | 41.95243 | 44.67494 | 8996 ft | 255 kts | 251° |
| 2026-04-28 22:03 | 41.94688 | 44.65223 | 9000 ft | 256 kts | 250° |
| 2026-04-28 22:03 | 41.94128 | 44.62958 | 8995 ft | 256 kts | 250° |
| 2026-04-28 22:03 | 41.93563 | 44.60687 | 8994 ft | 256 kts | 248° |
| 2026-04-28 22:03 | 41.92837 | 44.58513 | 8994 ft | 255 kts | 242° |
| 2026-04-28 22:04 | 41.92039 | 44.56385 | 8993 ft | 255 kts | 241° |
| 2026-04-28 22:04 | 41.91234 | 44.54264 | 8997 ft | 255 kts | 241° |
| 2026-04-28 22:04 | 41.90690 | 44.52011 | 8993 ft | 257 kts | 266° |
| 2026-04-28 22:04 | 41.91011 | 44.49671 | 8995 ft | 258 kts | 297° |
| 2026-04-28 22:05 | 41.92152 | 44.47841 | 8995 ft | 257 kts | 327° |
| 2026-04-28 22:05 | 41.93803 | 44.47010 | 8994 ft | 255 kts | 358° |
| 2026-04-28 22:05 | 41.95517 | 44.47388 | 8998 ft | 250 kts | 28° |
| 2026-04-28 22:05 | 41.96827 | 44.48851 | 8991 ft | 245 kts | 59° |
| 2026-04-28 22:06 | 41.97379 | 44.50977 | 8993 ft | 242 kts | 90° |
| 2026-04-28 22:06 | 41.97185 | 44.53208 | 8993 ft | 241 kts | 104° |
| 2026-04-28 22:06 | 41.96690 | 44.55367 | 8990 ft | 242 kts | 114° |
| 2026-04-28 22:06 | 41.95977 | 44.57411 | 8996 ft | 242 kts | 117° |
| 2026-04-28 22:07 | 41.95324 | 44.59496 | 8993 ft | 243 kts | 104° |
| 2026-04-28 22:07 | 41.94851 | 44.61675 | 8994 ft | 243 kts | 115° |
| 2026-04-28 22:07 | 41.94064 | 44.63683 | 8999 ft | 243 kts | 120° |
| 2026-04-28 22:07 | 41.92968 | 44.65373 | 8994 ft | 243 kts | 147° |
| 2026-04-28 22:08 | 41.91376 | 44.66083 | 8998 ft | 246 kts | 177° |
| 2026-04-28 22:08 | 41.89707 | 44.65586 | 8998 ft | 250 kts | 208° |
| 2026-04-28 22:08 | 41.88464 | 44.63975 | 8987 ft | 254 kts | 243° |
| 2026-04-28 22:08 | 41.88170 | 44.61672 | 8999 ft | 256 kts | 278° |
| 2026-04-28 22:09 | 41.88490 | 44.59307 | 8995 ft | 259 kts | 272° |
| 2026-04-28 22:09 | 41.88248 | 44.56927 | 8998 ft | 259 kts | 255° |
| 2026-04-28 22:09 | 41.87949 | 44.54537 | 8983 ft | 260 kts | 262° |
| 2026-04-28 22:09 | 41.87759 | 44.52117 | 8993 ft | 260 kts | 263° |
| 2026-04-28 22:10 | 41.87616 | 44.49694 | 8989 ft | 261 kts | 271° |
| 2026-04-28 22:10 | 41.88024 | 44.47337 | 8998 ft | 262 kts | 296° |
| 2026-04-28 22:10 | 41.89143 | 44.45430 | 8992 ft | 262 kts | 323° |
| 2026-04-28 22:10 | 41.90758 | 44.44381 | 8993 ft | 259 kts | 350° |
| 2026-04-28 22:11 | 41.92539 | 44.44359 | 8991 ft | 256 kts | 15° |
| 2026-04-28 22:11 | 41.94141 | 44.45330 | 8989 ft | 252 kts | 40° |
| 2026-04-28 22:11 | 41.95284 | 44.47071 | 8990 ft | 249 kts | 64° |
| 2026-04-28 22:11 | 41.95787 | 44.49272 | 8994 ft | 247 kts | 88° |
| 2026-04-28 22:12 | 41.95589 | 44.51536 | 8995 ft | 245 kts | 106° |
| 2026-04-28 22:12 | 41.95134 | 44.53751 | 8990 ft | 246 kts | 106° |
| 2026-04-28 22:12 | 41.94683 | 44.55967 | 8985 ft | 246 kts | 105° |
| 2026-04-28 22:12 | 41.94235 | 44.58183 | 8992 ft | 246 kts | 105° |
| 2026-04-28 22:13 | 41.93786 | 44.60405 | 8991 ft | 245 kts | 107° |
| 2026-04-28 22:13 | 41.93133 | 44.62499 | 8958 ft | 244 kts | 121° |
| 2026-04-28 22:13 | 41.92021 | 44.64243 | 8495 ft | 248 kts | 137° |
| 2026-04-28 22:13 | 41.90750 | 44.65788 | 8132 ft | 247 kts | 137° |
| 2026-04-28 22:14 | 41.89472 | 44.67316 | 7798 ft | 244 kts | 138° |
| 2026-04-28 22:14 | 41.88203 | 44.68811 | 7470 ft | 241 kts | 141° |
| 2026-04-28 22:14 | 41.86812 | 44.70050 | 7159 ft | 239 kts | 143° |
| 2026-04-28 22:14 | 41.85544 | 44.71444 | 6844 ft | 238 kts | 137° |
| 2026-04-28 22:15 | 41.84329 | 44.72985 | 6519 ft | 236 kts | 136° |
| 2026-04-28 22:15 | 41.83549 | 44.73988 | 6305 ft | 234 kts | 136° |
| 2026-04-28 22:15 | 41.82378 | 44.75485 | 6003 ft | 231 kts | 136° |
| 2026-04-28 22:15 | 41.81241 | 44.76933 | 5838 ft | 223 kts | 136° |
| 2026-04-28 22:16 | 41.80117 | 44.78362 | 5530 ft | 222 kts | 136° |
| 2026-04-28 22:16 | 41.78993 | 44.79791 | 5203 ft | 223 kts | 136° |
| 2026-04-28 22:16 | 41.77887 | 44.81197 | 4876 ft | 213 kts | 136° |
| 2026-04-28 22:16 | 41.76843 | 44.82522 | 4533 ft | 200 kts | 136° |
| 2026-04-28 22:17 | 41.75850 | 44.83784 | 4217 ft | 194 kts | 136° |
| 2026-04-28 22:17 | 41.74903 | 44.84985 | 3924 ft | 182 kts | 136° |
| 2026-04-28 22:17 | 41.74013 | 44.86115 | 3640 ft | 171 kts | 136° |
| 2026-04-28 22:17 | 41.73174 | 44.87178 | 3367 ft | 160 kts | 136° |
| 2026-04-28 22:18 | 41.72405 | 44.88153 | 3114 ft | 146 kts | 136° |
| 2026-04-28 22:18 | 41.71686 | 44.89064 | 2868 ft | 140 kts | 136° |
| 2026-04-28 22:18 | 41.70985 | 44.89952 | 2618 ft | 138 kts | 136° |
| 2026-04-28 22:18 | 41.70297 | 44.90822 | 2404 ft | 135 kts | 136° |
| 2026-04-28 22:19 | 41.69613 | 44.91688 | 2165 ft | 136 kts | 135° |
| 2026-04-28 22:19 | 41.68927 | 44.92553 | 1985 ft | 135 kts | 135° |
| 2026-04-28 22:19 | 41.68243 | 44.93414 | 1709 ft | 135 kts | 134° |
| 2026-04-28 22:19 | 41.67569 | 44.94275 | 1555 ft | 132 kts | 133° |
| 2026-04-28 22:20 | 41.66978 | 44.95039 | 1527 ft | 99 kts | 137° |
| 2026-04-28 22:20 | 41.66597 | 44.95512 | 1523 ft | 53 kts | 136° |
| 2026-04-28 22:20 | 41.66356 | 44.95812 | 1522 ft | 42 kts | 137° |
| 2026-04-28 22:20 | 41.66161 | 44.96058 | 1520 ft | 35 kts | 137° |
| 2026-04-28 22:21 | 41.65995 | 44.96267 | 1525 ft | 32 kts | 136° |
| 2026-04-28 22:21 | 41.65864 | 44.96427 | 1525 ft | 10 kts | 137° |
| 2026-04-28 22:21 | 41.65845 | 44.96493 | 1521 ft | 6 kts | 98° |
| 2026-04-28 22:21 | 41.65850 | 44.96555 | 1520 ft | 10 kts | 67° |
| 2026-04-28 22:22 | 41.65882 | 44.96594 | 1522 ft | 0 kts | 24° |
| 2026-04-28 22:23 | 41.65919 | 44.96601 | 1523 ft | 10 kts | 353° |
| 2026-04-28 22:23 | 41.65973 | 44.96553 | 1518 ft | 11 kts | 317° |
| 2026-04-28 22:23 | 41.66049 | 44.96457 | 1526 ft | 14 kts | 316° |
| 2026-04-28 22:24 | 41.66122 | 44.96364 | 1523 ft | 17 kts | 317° |
| 2026-04-28 22:24 | 41.66217 | 44.96302 | 1522 ft | 14 kts | 349° |
| 2026-04-28 22:24 | 41.66324 | 44.96313 | 1524 ft | 19 kts | 14° |
| 2026-04-28 22:24 | 41.66476 | 44.96363 | 1523 ft | 25 kts | 14° |
| 2026-04-28 22:25 | 41.66629 | 44.96410 | 1525 ft | 18 kts | 13° |
| 2026-04-28 22:25 | 41.66703 | 44.96429 | 1523 ft | 13 kts | 350° |
| 2026-04-28 22:25 | 41.66777 | 44.96353 | 1522 ft | 11 kts | 314° |
| 2026-04-28 22:25 | 41.66810 | 44.96333 | 1524 ft | 3 kts | 12° |
| 2026-04-28 22:26 | 41.66821 | 44.96344 | 1524 ft | 5 kts | 39° |
| 2026-04-28 22:26 | 41.66855 | 44.96385 | 1527 ft | 6 kts | 47° |
| 2026-04-28 22:26 | 41.66862 | 44.96394 | 1521 ft | 0 kts | 45° |
| 2026-04-28 22:26 | 41.66864 | 44.96395 | 1521 ft | 0 kts | 40° |